Terminal Aerodrome Forecast
Issued by NWS Sterling, VA

Home | Current Version | Previous Version | Text Only | Print | Product List | Glossary On
Versions: 1 2 3 4 5 6 7 8 9 10 11 12 13 14 15 16 17 18 19 20 21
000
FTUS41 KLWX 310800 AAA
TAFBWI
TAF AMD
KBWI 310839Z 3109/0112 00000KT P6SM SCT100
     FM311400 24006KT P6SM SCT200
     FM010000 18005KT P6SM SCT070
     FM010200 17005KT P6SM BKN070=

USA.gov is the U.S. government's official web portal to all federal, state and local government web resources and services.